Huvudsida
METAR-TAF:

METAR-TAF

Flygplatser :

Ivato International Airport

Antananarivo, Madagaskar

latitud: 18-48S, longitud: 047-29E, höjd: 1279 m

Aktuellt väderrapport

Denna rapport gjordes för 5 minuter sedan, klockan 08:00 UTC
Vind 9 kt från sydost, varierande mellan ost och syd
Temperatur 22°C
Fuktighet 43%
Tryck 1025 hPa
Sikt 10 km eller mer
Få moln på en höjd av 2000 ft

METAR: FMMI 230800Z 13009KT 080V190 9999 FEW020 22/09 Q1025 NOSIG

Tid: 11:05 (08:05 UTC)

Väderprognos

Denna rapport gjordes för 3 timmar och 5 minuter sedan, klockan 05:00 UTC
Prognos gäller från 23 kl. 06 UTC till 24 kl. 12 UTC
Vind 10 kt från ost/sydost
Sikt 10 km eller mer
Få moln på en höjd av 2000 ft

TAF: FMMI 230500Z 2306/2412 12010KT 9999 FEW020

Aktuella väderrapporter och prognoser från 4000 flygplatser (METAR- och TAF-rapporter).

De tillgängliga stationerna syns som gula och röda prickar på kartan.

För musen över prickarna för att se namnen på stationerna.

Klicka sedan för att få väderrapporter och prognoser.

För att ändra kartan: Klicka på de gröna knapparna med ett svart kors på för att zooma in; den gröna knappen med ett streck på för att zooma ut; eller på de gröna pilarna för angränsande kartor.


METAR-TAF: